sensor_id;sensor_type;location;lat;lon;timestamp;pressure;altitude;pressure_sealevel;temperature
33877;BMP180;20166;51.738;7.158;2023-09-19T00:00:56;100201.00;;;17.50
33877;BMP180;20166;51.738;7.158;2023-09-19T00:03:44;100212.00;;;17.50
33877;BMP180;20166;51.738;7.158;2023-09-19T00:06:30;100209.00;;;17.40
33877;BMP180;20166;51.738;7.158;2023-09-19T00:09:17;100203.00;;;17.30
33877;BMP180;20166;51.738;7.158;2023-09-19T00:12:04;100204.00;;;17.30
33877;BMP180;20166;51.738;7.158;2023-09-19T00:14:51;100208.00;;;17.30
33877;BMP180;20166;51.738;7.158;2023-09-19T00:17:38;100209.00;;;17.30
33877;BMP180;20166;51.738;7.158;2023-09-19T00:20:27;100212.00;;;17.30
33877;BMP180;20166;51.738;7.158;2023-09-19T00:23:15;100223.00;;;17.10
33877;BMP180;20166;51.738;7.158;2023-09-19T00:26:01;100220.00;;;17.00
33877;BMP180;20166;51.738;7.158;2023-09-19T00:28:52;100233.00;;;17.00
33877;BMP180;20166;51.738;7.158;2023-09-19T00:31:38;100225.00;;;17.00
33877;BMP180;20166;51.738;7.158;2023-09-19T00:34:25;100229.00;;;17.00
33877;BMP180;20166;51.738;7.158;2023-09-19T00:37:14;100241.00;;;17.00
33877;BMP180;20166;51.738;7.158;2023-09-19T00:40:03;100243.00;;;17.00
33877;BMP180;20166;51.738;7.158;2023-09-19T00:42:50;100245.00;;;16.90
33877;BMP180;20166;51.738;7.158;2023-09-19T00:45:39;100252.00;;;17.00
33877;BMP180;20166;51.738;7.158;2023-09-19T00:48:28;100254.00;;;17.10
33877;BMP180;20166;51.738;7.158;2023-09-19T00:51:15;100251.00;;;17.20
33877;BMP180;20166;51.738;7.158;2023-09-19T00:54:06;100254.00;;;17.20
33877;BMP180;20166;51.738;7.158;2023-09-19T00:56:53;100251.00;;;17.20
33877;BMP180;20166;51.738;7.158;2023-09-19T00:59:40;100251.00;;;17.20
33877;BMP180;20166;51.738;7.158;2023-09-19T01:02:26;100256.00;;;17.20
33877;BMP180;20166;51.738;7.158;2023-09-19T01:05:13;100274.00;;;17.20
33877;BMP180;20166;51.738;7.158;2023-09-19T01:08:00;100258.00;;;17.20
33877;BMP180;20166;51.738;7.158;2023-09-19T01:10:52;100256.00;;;17.20
33877;BMP180;20166;51.738;7.158;2023-09-19T01:13:48;100273.00;;;17.30
33877;BMP180;20166;51.738;7.158;2023-09-19T01:16:42;100275.00;;;17.30
33877;BMP180;20166;51.738;7.158;2023-09-19T01:20:03;100275.00;;;17.30
33877;BMP180;20166;51.738;7.158;2023-09-19T01:23:02;100280.00;;;17.30
33877;BMP180;20166;51.738;7.158;2023-09-19T01:26:07;100291.00;;;17.30
33877;BMP180;20166;51.738;7.158;2023-09-19T01:29:07;100281.00;;;17.30
33877;BMP180;20166;51.738;7.158;2023-09-19T01:32:03;100285.00;;;17.30
33877;BMP180;20166;51.738;7.158;2023-09-19T01:34:53;100289.00;;;17.30
33877;BMP180;20166;51.738;7.158;2023-09-19T01:37:41;100292.00;;;17.10
33877;BMP180;20166;51.738;7.158;2023-09-19T01:40:28;100293.00;;;17.10
33877;BMP180;20166;51.738;7.158;2023-09-19T01:43:20;100297.00;;;16.90
33877;BMP180;20166;51.738;7.158;2023-09-19T01:46:13;100302.00;;;17.00
33877;BMP180;20166;51.738;7.158;2023-09-19T01:49:11;100312.00;;;17.00
33877;BMP180;20166;51.738;7.158;2023-09-19T01:52:05;100307.00;;;16.80
33877;BMP180;20166;51.738;7.158;2023-09-19T01:54:59;100304.00;;;16.80
33877;BMP180;20166;51.738;7.158;2023-09-19T01:57:58;100307.00;;;16.70
33877;BMP180;20166;51.738;7.158;2023-09-19T02:00:46;100304.00;;;16.60
33877;BMP180;20166;51.738;7.158;2023-09-19T02:03:35;100315.00;;;16.60
33877;BMP180;20166;51.738;7.158;2023-09-19T02:06:24;100312.00;;;16.60
33877;BMP180;20166;51.738;7.158;2023-09-19T02:09:12;100319.00;;;16.60
33877;BMP180;20166;51.738;7.158;2023-09-19T02:11:58;100316.00;;;16.50
33877;BMP180;20166;51.738;7.158;2023-09-19T02:14:45;100330.00;;;16.50
33877;BMP180;20166;51.738;7.158;2023-09-19T02:17:31;100324.00;;;16.40
33877;BMP180;20166;51.738;7.158;2023-09-19T02:20:17;100334.00;;;16.40
33877;BMP180;20166;51.738;7.158;2023-09-19T02:23:07;100333.00;;;16.40
33877;BMP180;20166;51.738;7.158;2023-09-19T02:25:54;100331.00;;;16.40
33877;BMP180;20166;51.738;7.158;2023-09-19T02:28:43;100330.00;;;16.40
33877;BMP180;20166;51.738;7.158;2023-09-19T02:31:31;100342.00;;;16.30
33877;BMP180;20166;51.738;7.158;2023-09-19T02:34:17;100344.00;;;16.20
33877;BMP180;20166;51.738;7.158;2023-09-19T02:37:04;100341.00;;;16.20
33877;BMP180;20166;51.738;7.158;2023-09-19T02:39:52;100339.00;;;16.20
33877;BMP180;20166;51.738;7.158;2023-09-19T02:42:38;100339.00;;;16.20
33877;BMP180;20166;51.738;7.158;2023-09-19T02:45:25;100340.00;;;16.10
33877;BMP180;20166;51.738;7.158;2023-09-19T02:48:11;100355.00;;;16.10
33877;BMP180;20166;51.738;7.158;2023-09-19T02:50:57;100346.00;;;16.10
33877;BMP180;20166;51.738;7.158;2023-09-19T02:53:44;100345.00;;;16.10
33877;BMP180;20166;51.738;7.158;2023-09-19T02:56:34;100357.00;;;16.20
33877;BMP180;20166;51.738;7.158;2023-09-19T02:59:20;100356.00;;;16.20
33877;BMP180;20166;51.738;7.158;2023-09-19T03:02:06;100349.00;;;16.10
33877;BMP180;20166;51.738;7.158;2023-09-19T03:04:53;100348.00;;;16.10
33877;BMP180;20166;51.738;7.158;2023-09-19T03:07:41;100359.00;;;16.10
33877;BMP180;20166;51.738;7.158;2023-09-19T03:10:31;100349.00;;;16.10
33877;BMP180;20166;51.738;7.158;2023-09-19T03:13:18;100359.00;;;16.10
33877;BMP180;20166;51.738;7.158;2023-09-19T03:16:05;100364.00;;;16.10
33877;BMP180;20166;51.738;7.158;2023-09-19T03:18:51;100364.00;;;16.00
33877;BMP180;20166;51.738;7.158;2023-09-19T03:21:38;100364.00;;;16.10
33877;BMP180;20166;51.738;7.158;2023-09-19T03:24:25;100366.00;;;16.10
33877;BMP180;20166;51.738;7.158;2023-09-19T03:27:12;100370.00;;;16.10
33877;BMP180;20166;51.738;7.158;2023-09-19T03:30:00;100366.00;;;16.10
33877;BMP180;20166;51.738;7.158;2023-09-19T03:32:50;100369.00;;;16.00
33877;BMP180;20166;51.738;7.158;2023-09-19T03:35:36;100365.00;;;16.00
33877;BMP180;20166;51.738;7.158;2023-09-19T03:38:23;100372.00;;;15.90
33877;BMP180;20166;51.738;7.158;2023-09-19T03:41:09;100375.00;;;15.80
33877;BMP180;20166;51.738;7.158;2023-09-19T03:43:59;100373.00;;;15.80
33877;BMP180;20166;51.738;7.158;2023-09-19T03:46:47;100371.00;;;15.80
33877;BMP180;20166;51.738;7.158;2023-09-19T03:49:33;100365.00;;;15.80
33877;BMP180;20166;51.738;7.158;2023-09-19T03:52:20;100366.00;;;15.80
33877;BMP180;20166;51.738;7.158;2023-09-19T03:55:07;100365.00;;;15.70
33877;BMP180;20166;51.738;7.158;2023-09-19T03:57:54;100370.00;;;15.70
33877;BMP180;20166;51.738;7.158;2023-09-19T04:00:40;100361.00;;;15.70
33877;BMP180;20166;51.738;7.158;2023-09-19T04:03:28;100364.00;;;15.70
33877;BMP180;20166;51.738;7.158;2023-09-19T04:06:20;100375.00;;;15.60
33877;BMP180;20166;51.738;7.158;2023-09-19T04:09:07;100371.00;;;15.40
33877;BMP180;20166;51.738;7.158;2023-09-19T04:11:54;100370.00;;;15.40
33877;BMP180;20166;51.738;7.158;2023-09-19T04:14:41;100371.00;;;15.50
33877;BMP180;20166;51.738;7.158;2023-09-19T04:17:28;100372.00;;;15.50
33877;BMP180;20166;51.738;7.158;2023-09-19T04:20:16;100373.00;;;15.50
33877;BMP180;20166;51.738;7.158;2023-09-19T04:23:03;100368.00;;;15.50
33877;BMP180;20166;51.738;7.158;2023-09-19T04:25:50;100371.00;;;15.50
33877;BMP180;20166;51.738;7.158;2023-09-19T04:28:37;100375.00;;;15.40
33877;BMP180;20166;51.738;7.158;2023-09-19T04:31:25;100379.00;;;15.20
33877;BMP180;20166;51.738;7.158;2023-09-19T04:34:12;100376.00;;;15.20
33877;BMP180;20166;51.738;7.158;2023-09-19T04:37:01;100383.00;;;15.30
33877;BMP180;20166;51.738;7.158;2023-09-19T04:39:48;100372.00;;;15.30
33877;BMP180;20166;51.738;7.158;2023-09-19T04:42:35;100380.00;;;15.30
33877;BMP180;20166;51.738;7.158;2023-09-19T04:45:21;100373.00;;;15.20
33877;BMP180;20166;51.738;7.158;2023-09-19T04:48:07;100387.00;;;15.30
33877;BMP180;20166;51.738;7.158;2023-09-19T04:50:56;100379.00;;;15.30
33877;BMP180;20166;51.738;7.158;2023-09-19T04:53:43;100382.00;;;15.30
33877;BMP180;20166;51.738;7.158;2023-09-19T04:56:30;100389.00;;;15.40
33877;BMP180;20166;51.738;7.158;2023-09-19T04:59:16;100393.00;;;15.40
33877;BMP180;20166;51.738;7.158;2023-09-19T05:02:03;100400.00;;;15.40
33877;BMP180;20166;51.738;7.158;2023-09-19T05:04:49;100404.00;;;15.40
33877;BMP180;20166;51.738;7.158;2023-09-19T05:07:35;100413.00;;;15.30
33877;BMP180;20166;51.738;7.158;2023-09-19T05:10:23;100418.00;;;15.30
33877;BMP180;20166;51.738;7.158;2023-09-19T05:13:10;100421.00;;;15.40
33877;BMP180;20166;51.738;7.158;2023-09-19T05:15:59;100417.00;;;15.30
33877;BMP180;20166;51.738;7.158;2023-09-19T05:18:46;100430.00;;;15.20
33877;BMP180;20166;51.738;7.158;2023-09-19T05:21:34;100434.00;;;15.20
33877;BMP180;20166;51.738;7.158;2023-09-19T05:24:21;100439.00;;;15.20
33877;BMP180;20166;51.738;7.158;2023-09-19T05:27:09;100447.00;;;15.10
33877;BMP180;20166;51.738;7.158;2023-09-19T05:29:57;100458.00;;;15.20
33877;BMP180;20166;51.738;7.158;2023-09-19T05:32:43;100460.00;;;15.10
33877;BMP180;20166;51.738;7.158;2023-09-19T05:35:30;100464.00;;;15.10
33877;BMP180;20166;51.738;7.158;2023-09-19T05:38:17;100457.00;;;15.30
33877;BMP180;20166;51.738;7.158;2023-09-19T05:41:05;100463.00;;;15.40
33877;BMP180;20166;51.738;7.158;2023-09-19T05:43:53;100461.00;;;15.50
33877;BMP180;20166;51.738;7.158;2023-09-19T05:46:40;100464.00;;;15.50
33877;BMP180;20166;51.738;7.158;2023-09-19T05:49:26;100456.00;;;15.60
33877;BMP180;20166;51.738;7.158;2023-09-19T05:52:12;100457.00;;;15.60
33877;BMP180;20166;51.738;7.158;2023-09-19T05:54:59;100452.00;;;15.60
33877;BMP180;20166;51.738;7.158;2023-09-19T05:57:49;100445.00;;;15.70
33877;BMP180;20166;51.738;7.158;2023-09-19T06:00:37;100450.00;;;15.70
33877;BMP180;20166;51.738;7.158;2023-09-19T06:03:24;100454.00;;;15.80
33877;BMP180;20166;51.738;7.158;2023-09-19T06:06:11;100451.00;;;15.80
33877;BMP180;20166;51.738;7.158;2023-09-19T06:08:58;100449.00;;;15.90
33877;BMP180;20166;51.738;7.158;2023-09-19T06:11:44;100449.00;;;15.90
33877;BMP180;20166;51.738;7.158;2023-09-19T06:14:30;100453.00;;;16.00
33877;BMP180;20166;51.738;7.158;2023-09-19T06:17:18;100441.00;;;16.00
33877;BMP180;20166;51.738;7.158;2023-09-19T06:20:06;100447.00;;;16.00
33877;BMP180;20166;51.738;7.158;2023-09-19T06:22:57;100455.00;;;16.10
33877;BMP180;20166;51.738;7.158;2023-09-19T06:25:44;100458.00;;;16.10
33877;BMP180;20166;51.738;7.158;2023-09-19T06:28:30;100463.00;;;16.10
33877;BMP180;20166;51.738;7.158;2023-09-19T06:31:18;100461.00;;;16.20
33877;BMP180;20166;51.738;7.158;2023-09-19T06:34:09;100460.00;;;16.20
33877;BMP180;20166;51.738;7.158;2023-09-19T06:36:55;100467.00;;;16.10
33877;BMP180;20166;51.738;7.158;2023-09-19T06:39:42;100462.00;;;16.20
33877;BMP180;20166;51.738;7.158;2023-09-19T06:42:28;100468.00;;;16.30
33877;BMP180;20166;51.738;7.158;2023-09-19T06:45:15;100462.00;;;16.40
33877;BMP180;20166;51.738;7.158;2023-09-19T06:48:05;100469.00;;;16.40
33877;BMP180;20166;51.738;7.158;2023-09-19T06:50:54;100465.00;;;16.40
33877;BMP180;20166;51.738;7.158;2023-09-19T06:53:40;100480.00;;;16.50
33877;BMP180;20166;51.738;7.158;2023-09-19T06:56:27;100476.00;;;16.50
33877;BMP180;20166;51.738;7.158;2023-09-19T06:59:13;100480.00;;;16.50
33877;BMP180;20166;51.738;7.158;2023-09-19T07:02:00;100482.00;;;16.60
33877;BMP180;20166;51.738;7.158;2023-09-19T07:04:46;100485.00;;;16.50
33877;BMP180;20166;51.738;7.158;2023-09-19T07:07:35;100484.00;;;16.60
33877;BMP180;20166;51.738;7.158;2023-09-19T07:10:22;100492.00;;;16.70
33877;BMP180;20166;51.738;7.158;2023-09-19T07:13:10;100494.00;;;16.60
33877;BMP180;20166;51.738;7.158;2023-09-19T07:15:58;100491.00;;;16.60
33877;BMP180;20166;51.738;7.158;2023-09-19T07:18:44;100502.00;;;16.70
33877;BMP180;20166;51.738;7.158;2023-09-19T07:21:31;100498.00;;;16.80
33877;BMP180;20166;51.738;7.158;2023-09-19T07:24:21;100491.00;;;16.80
33877;BMP180;20166;51.738;7.158;2023-09-19T07:27:09;100502.00;;;16.90
33877;BMP180;20166;51.738;7.158;2023-09-19T07:29:55;100494.00;;;17.00
33877;BMP180;20166;51.738;7.158;2023-09-19T07:32:41;100491.00;;;16.90
33877;BMP180;20166;51.738;7.158;2023-09-19T07:35:28;100495.00;;;17.00
33877;BMP180;20166;51.738;7.158;2023-09-19T07:38:14;100491.00;;;17.00
33877;BMP180;20166;51.738;7.158;2023-09-19T07:41:03;100504.00;;;17.10
33877;BMP180;20166;51.738;7.158;2023-09-19T07:43:51;100502.00;;;17.10
33877;BMP180;20166;51.738;7.158;2023-09-19T07:46:37;100506.00;;;17.00
33877;BMP180;20166;51.738;7.158;2023-09-19T07:49:23;100502.00;;;17.10
33877;BMP180;20166;51.738;7.158;2023-09-19T07:52:09;100504.00;;;17.10
33877;BMP180;20166;51.738;7.158;2023-09-19T07:54:57;100514.00;;;17.10
33877;BMP180;20166;51.738;7.158;2023-09-19T07:57:47;100505.00;;;17.20
33877;BMP180;20166;51.738;7.158;2023-09-19T08:00:34;100514.00;;;17.10
33877;BMP180;20166;51.738;7.158;2023-09-19T08:03:20;100513.00;;;17.10
33877;BMP180;20166;51.738;7.158;2023-09-19T08:06:07;100510.00;;;17.20
33877;BMP180;20166;51.738;7.158;2023-09-19T08:08:54;100536.00;;;17.30
33877;BMP180;20166;51.738;7.158;2023-09-19T08:11:42;100516.00;;;17.20
33877;BMP180;20166;51.738;7.158;2023-09-19T08:14:32;100527.00;;;17.30
33877;BMP180;20166;51.738;7.158;2023-09-19T08:17:18;100528.00;;;17.30
33877;BMP180;20166;51.738;7.158;2023-09-19T08:20:06;100535.00;;;17.40
33877;BMP180;20166;51.738;7.158;2023-09-19T08:22:54;100546.00;;;17.40
33877;BMP180;20166;51.738;7.158;2023-09-19T08:25:40;100537.00;;;17.50
33877;BMP180;20166;51.738;7.158;2023-09-19T08:28:27;100540.00;;;17.60
33877;BMP180;20166;51.738;7.158;2023-09-19T08:31:15;100542.00;;;17.70
33877;BMP180;20166;51.738;7.158;2023-09-19T08:34:02;100547.00;;;17.70
33877;BMP180;20166;51.738;7.158;2023-09-19T08:36:50;100532.00;;;17.60
33877;BMP180;20166;51.738;7.158;2023-09-19T08:39:37;100539.00;;;17.70
33877;BMP180;20166;51.738;7.158;2023-09-19T08:42:24;100531.00;;;17.70
33877;BMP180;20166;51.738;7.158;2023-09-19T08:45:10;100541.00;;;17.70
33877;BMP180;20166;51.738;7.158;2023-09-19T08:48:15;100534.00;;;17.80
33877;BMP180;20166;51.738;7.158;2023-09-19T08:51:06;100536.00;;;18.00
33877;BMP180;20166;51.738;7.158;2023-09-19T08:53:58;100538.00;;;18.00
33877;BMP180;20166;51.738;7.158;2023-09-19T08:56:50;100536.00;;;18.00
33877;BMP180;20166;51.738;7.158;2023-09-19T08:59:38;100552.00;;;18.00
33877;BMP180;20166;51.738;7.158;2023-09-19T09:02:26;100542.00;;;18.10
33877;BMP180;20166;51.738;7.158;2023-09-19T09:05:16;100542.00;;;18.20
33877;BMP180;20166;51.738;7.158;2023-09-19T09:08:08;100538.00;;;18.30
33877;BMP180;20166;51.738;7.158;2023-09-19T09:10:55;100549.00;;;18.20
33877;BMP180;20166;51.738;7.158;2023-09-19T09:13:43;100546.00;;;18.20
33877;BMP180;20166;51.738;7.158;2023-09-19T09:16:31;100550.00;;;18.20
33877;BMP180;20166;51.738;7.158;2023-09-19T09:19:17;100537.00;;;18.20
33877;BMP180;20166;51.738;7.158;2023-09-19T09:22:11;100529.00;;;18.30
33877;BMP180;20166;51.738;7.158;2023-09-19T09:24:58;100530.00;;;18.40
33877;BMP180;20166;51.738;7.158;2023-09-19T09:27:58;100532.00;;;18.30
33877;BMP180;20166;51.738;7.158;2023-09-19T09:30:45;100531.00;;;18.40
33877;BMP180;20166;51.738;7.158;2023-09-19T09:33:32;100541.00;;;18.40
33877;BMP180;20166;51.738;7.158;2023-09-19T09:36:33;100527.00;;;18.60
33877;BMP180;20166;51.738;7.158;2023-09-19T09:39:31;100528.00;;;18.60
33877;BMP180;20166;51.738;7.158;2023-09-19T09:42:29;100536.00;;;18.60
33877;BMP180;20166;51.738;7.158;2023-09-19T09:45:19;100524.00;;;18.60
33877;BMP180;20166;51.738;7.158;2023-09-19T09:48:13;100535.00;;;18.70
33877;BMP180;20166;51.738;7.158;2023-09-19T09:50:59;100525.00;;;18.80
33877;BMP180;20166;51.738;7.158;2023-09-19T09:53:48;100523.00;;;18.90
33877;BMP180;20166;51.738;7.158;2023-09-19T09:56:52;100540.00;;;18.90
33877;BMP180;20166;51.738;7.158;2023-09-19T09:59:47;100539.00;;;18.90
33877;BMP180;20166;51.738;7.158;2023-09-19T10:02:35;100522.00;;;18.80
33877;BMP180;20166;51.738;7.158;2023-09-19T10:05:22;100535.00;;;18.90
33877;BMP180;20166;51.738;7.158;2023-09-19T10:08:14;100520.00;;;19.00
33877;BMP180;20166;51.738;7.158;2023-09-19T10:11:15;100528.00;;;19.00
33877;BMP180;20166;51.738;7.158;2023-09-19T10:14:04;100525.00;;;19.00
33877;BMP180;20166;51.738;7.158;2023-09-19T10:16:53;100522.00;;;19.10
33877;BMP180;20166;51.738;7.158;2023-09-19T10:19:53;100511.00;;;19.10
33877;BMP180;20166;51.738;7.158;2023-09-19T10:22:43;100520.00;;;19.00
33877;BMP180;20166;51.738;7.158;2023-09-19T10:25:31;100513.00;;;18.90
33877;BMP180;20166;51.738;7.158;2023-09-19T10:28:19;100509.00;;;19.20
33877;BMP180;20166;51.738;7.158;2023-09-19T10:31:08;100499.00;;;19.30
33877;BMP180;20166;51.738;7.158;2023-09-19T10:34:02;100508.00;;;19.40
33877;BMP180;20166;51.738;7.158;2023-09-19T10:36:51;100496.00;;;19.60
33877;BMP180;20166;51.738;7.158;2023-09-19T10:39:39;100508.00;;;19.90
33877;BMP180;20166;51.738;7.158;2023-09-19T10:42:27;100494.00;;;19.70
33877;BMP180;20166;51.738;7.158;2023-09-19T10:45:15;100488.00;;;19.90
33877;BMP180;20166;51.738;7.158;2023-09-19T10:48:06;100483.00;;;20.20
33877;BMP180;20166;51.738;7.158;2023-09-19T10:51:07;100482.00;;;20.30
33877;BMP180;20166;51.738;7.158;2023-09-19T10:53:57;100491.00;;;20.50
33877;BMP180;20166;51.738;7.158;2023-09-19T10:56:48;100487.00;;;20.70
33877;BMP180;20166;51.738;7.158;2023-09-19T10:59:36;100495.00;;;20.80
33877;BMP180;20166;51.738;7.158;2023-09-19T11:02:22;100495.00;;;20.90
33877;BMP180;20166;51.738;7.158;2023-09-19T11:05:12;100506.00;;;21.20
33877;BMP180;20166;51.738;7.158;2023-09-19T11:07:59;100503.00;;;21.30
33877;BMP180;20166;51.738;7.158;2023-09-19T11:10:50;100500.00;;;21.50
33877;BMP180;20166;51.738;7.158;2023-09-19T11:13:37;100507.00;;;21.50
33877;BMP180;20166;51.738;7.158;2023-09-19T11:16:26;100508.00;;;21.10
33877;BMP180;20166;51.738;7.158;2023-09-19T11:19:13;100502.00;;;20.70
33877;BMP180;20166;51.738;7.158;2023-09-19T11:22:00;100488.00;;;20.80
33877;BMP180;20166;51.738;7.158;2023-09-19T11:24:47;100496.00;;;21.10
33877;BMP180;20166;51.738;7.158;2023-09-19T11:34:46;100486.00;;;21.30
33877;BMP180;20166;51.738;7.158;2023-09-19T11:38:01;100493.00;;;21.20
33877;BMP180;20166;51.738;7.158;2023-09-19T11:44:33;100493.00;;;21.50
33877;BMP180;20166;51.738;7.158;2023-09-19T11:47:23;100488.00;;;21.50
33877;BMP180;20166;51.738;7.158;2023-09-19T11:50:10;100487.00;;;21.90
33877;BMP180;20166;51.738;7.158;2023-09-19T11:52:57;100482.00;;;21.90
33877;BMP180;20166;51.738;7.158;2023-09-19T11:55:45;100498.00;;;21.70
33877;BMP180;20166;51.738;7.158;2023-09-19T11:58:32;100484.00;;;21.70
33877;BMP180;20166;51.738;7.158;2023-09-19T12:01:22;100471.00;;;21.80
33877;BMP180;20166;51.738;7.158;2023-09-19T12:04:11;100475.00;;;21.70
33877;BMP180;20166;51.738;7.158;2023-09-19T12:06:59;100475.00;;;21.90
33877;BMP180;20166;51.738;7.158;2023-09-19T12:09:47;100476.00;;;21.80
33877;BMP180;20166;51.738;7.158;2023-09-19T12:12:36;100471.00;;;22.10
33877;BMP180;20166;51.738;7.158;2023-09-19T12:15:23;100459.00;;;22.20
33877;BMP180;20166;51.738;7.158;2023-09-19T12:18:26;100476.00;;;22.40
33877;BMP180;20166;51.738;7.158;2023-09-19T12:21:28;100477.00;;;22.50
33877;BMP180;20166;51.738;7.158;2023-09-19T12:24:16;100462.00;;;22.60
33877;BMP180;20166;51.738;7.158;2023-09-19T12:27:05;100457.00;;;22.70
33877;BMP180;20166;51.738;7.158;2023-09-19T12:29:53;100457.00;;;22.80
33877;BMP180;20166;51.738;7.158;2023-09-19T12:32:40;100453.00;;;22.60
33877;BMP180;20166;51.738;7.158;2023-09-19T12:35:27;100458.00;;;22.50
33877;BMP180;20166;51.738;7.158;2023-09-19T12:38:23;100456.00;;;22.30
33877;BMP180;20166;51.738;7.158;2023-09-19T12:41:10;100443.00;;;22.50
33877;BMP180;20166;51.738;7.158;2023-09-19T12:43:56;100455.00;;;22.50
33877;BMP180;20166;51.738;7.158;2023-09-19T12:46:46;100459.00;;;22.20
33877;BMP180;20166;51.738;7.158;2023-09-19T12:49:33;100452.00;;;22.20
33877;BMP180;20166;51.738;7.158;2023-09-19T12:52:19;100462.00;;;22.10
33877;BMP180;20166;51.738;7.158;2023-09-19T12:55:06;100458.00;;;22.10
33877;BMP180;20166;51.738;7.158;2023-09-19T12:57:59;100441.00;;;22.00
33877;BMP180;20166;51.738;7.158;2023-09-19T13:00:47;100464.00;;;21.90
33877;BMP180;20166;51.738;7.158;2023-09-19T13:03:37;100459.00;;;22.00
33877;BMP180;20166;51.738;7.158;2023-09-19T13:06:35;100448.00;;;22.40
33877;BMP180;20166;51.738;7.158;2023-09-19T13:09:23;100458.00;;;22.60
33877;BMP180;20166;51.738;7.158;2023-09-19T13:12:36;100490.00;;;22.80
33877;BMP180;20166;51.738;7.158;2023-09-19T13:15:25;100461.00;;;22.70
33877;BMP180;20166;51.738;7.158;2023-09-19T13:18:14;100460.00;;;22.90
33877;BMP180;20166;51.738;7.158;2023-09-19T13:21:09;100442.00;;;23.20
33877;BMP180;20166;51.738;7.158;2023-09-19T13:24:18;100426.00;;;23.40
33877;BMP180;20166;51.738;7.158;2023-09-19T13:27:04;100428.00;;;23.50
33877;BMP180;20166;51.738;7.158;2023-09-19T13:29:51;100418.00;;;23.60
33877;BMP180;20166;51.738;7.158;2023-09-19T13:32:37;100426.00;;;23.60
33877;BMP180;20166;51.738;7.158;2023-09-19T13:35:25;100451.00;;;23.70
33877;BMP180;20166;51.738;7.158;2023-09-19T13:38:13;100435.00;;;23.50
33877;BMP180;20166;51.738;7.158;2023-09-19T13:41:00;100439.00;;;23.40
33877;BMP180;20166;51.738;7.158;2023-09-19T13:43:46;100437.00;;;23.20
33877;BMP180;20166;51.738;7.158;2023-09-19T13:46:34;100443.00;;;23.30
33877;BMP180;20166;51.738;7.158;2023-09-19T13:49:21;100443.00;;;23.20
33877;BMP180;20166;51.738;7.158;2023-09-19T13:52:08;100436.00;;;22.90
33877;BMP180;20166;51.738;7.158;2023-09-19T13:54:56;100460.00;;;22.60
33877;BMP180;20166;51.738;7.158;2023-09-19T13:57:43;100459.00;;;22.30
33877;BMP180;20166;51.738;7.158;2023-09-19T14:00:29;100472.00;;;22.30
33877;BMP180;20166;51.738;7.158;2023-09-19T14:03:19;100446.00;;;22.10
33877;BMP180;20166;51.738;7.158;2023-09-19T14:06:06;100455.00;;;22.10
33877;BMP180;20166;51.738;7.158;2023-09-19T14:08:52;100466.00;;;22.00
33877;BMP180;20166;51.738;7.158;2023-09-19T14:11:40;100456.00;;;21.80
33877;BMP180;20166;51.738;7.158;2023-09-19T14:14:27;100456.00;;;21.90
33877;BMP180;20166;51.738;7.158;2023-09-19T14:17:13;100453.00;;;21.90
33877;BMP180;20166;51.738;7.158;2023-09-19T14:20:00;100450.00;;;21.80
33877;BMP180;20166;51.738;7.158;2023-09-19T14:22:46;100459.00;;;21.80
33877;BMP180;20166;51.738;7.158;2023-09-19T14:25:34;100471.00;;;21.80
33877;BMP180;20166;51.738;7.158;2023-09-19T14:28:22;100467.00;;;21.70
33877;BMP180;20166;51.738;7.158;2023-09-19T14:31:11;100469.00;;;21.60
33877;BMP180;20166;51.738;7.158;2023-09-19T14:33:57;100462.00;;;21.50
33877;BMP180;20166;51.738;7.158;2023-09-19T14:36:44;100473.00;;;21.50
33877;BMP180;20166;51.738;7.158;2023-09-19T14:39:31;100466.00;;;21.50
33877;BMP180;20166;51.738;7.158;2023-09-19T14:42:17;100468.00;;;21.50
33877;BMP180;20166;51.738;7.158;2023-09-19T14:45:05;100467.00;;;21.40
33877;BMP180;20166;51.738;7.158;2023-09-19T14:47:52;100487.00;;;21.40
33877;BMP180;20166;51.738;7.158;2023-09-19T14:50:40;100466.00;;;21.30
33877;BMP180;20166;51.738;7.158;2023-09-19T14:53:27;100469.00;;;21.20
33877;BMP180;20166;51.738;7.158;2023-09-19T14:56:13;100464.00;;;21.10
33877;BMP180;20166;51.738;7.158;2023-09-19T14:59:04;100459.00;;;21.10
33877;BMP180;20166;51.738;7.158;2023-09-19T15:01:53;100459.00;;;21.00
33877;BMP180;20166;51.738;7.158;2023-09-19T15:04:39;100454.00;;;21.20
33877;BMP180;20166;51.738;7.158;2023-09-19T15:07:26;100458.00;;;21.10
33877;BMP180;20166;51.738;7.158;2023-09-19T15:10:14;100454.00;;;21.10
33877;BMP180;20166;51.738;7.158;2023-09-19T15:13:01;100455.00;;;21.30
33877;BMP180;20166;51.738;7.158;2023-09-19T15:15:47;100456.00;;;21.30
33877;BMP180;20166;51.738;7.158;2023-09-19T15:18:35;100453.00;;;21.30
33877;BMP180;20166;51.738;7.158;2023-09-19T15:21:23;100441.00;;;21.30
33877;BMP180;20166;51.738;7.158;2023-09-19T15:24:10;100457.00;;;21.40
33877;BMP180;20166;51.738;7.158;2023-09-19T15:26:56;100449.00;;;21.30
33877;BMP180;20166;51.738;7.158;2023-09-19T15:29:42;100463.00;;;21.20
33877;BMP180;20166;51.738;7.158;2023-09-19T15:32:29;100454.00;;;21.20
33877;BMP180;20166;51.738;7.158;2023-09-19T15:35:16;100445.00;;;21.10
33877;BMP180;20166;51.738;7.158;2023-09-19T15:38:03;100443.00;;;21.40
33877;BMP180;20166;51.738;7.158;2023-09-19T15:40:50;100451.00;;;21.30
33877;BMP180;20166;51.738;7.158;2023-09-19T15:43:37;100445.00;;;21.30
33877;BMP180;20166;51.738;7.158;2023-09-19T15:46:25;100442.00;;;21.50
33877;BMP180;20166;51.738;7.158;2023-09-19T15:49:12;100447.00;;;21.40
33877;BMP180;20166;51.738;7.158;2023-09-19T15:52:00;100455.00;;;21.30
33877;BMP180;20166;51.738;7.158;2023-09-19T15:54:46;100442.00;;;21.20
33877;BMP180;20166;51.738;7.158;2023-09-19T15:57:33;100432.00;;;21.10
33877;BMP180;20166;51.738;7.158;2023-09-19T16:00:20;100441.00;;;21.00
33877;BMP180;20166;51.738;7.158;2023-09-19T16:03:07;100434.00;;;21.00
33877;BMP180;20166;51.738;7.158;2023-09-19T16:05:53;100432.00;;;20.90
33877;BMP180;20166;51.738;7.158;2023-09-19T16:08:41;100446.00;;;20.90